createdAt,value
2024-03-26T00:02:10.469Z,98.92
2024-03-26T00:04:38.983Z,97.68
2024-03-26T00:07:07.564Z,96.21
2024-03-26T00:09:36.155Z,95.30
2024-03-26T00:12:04.738Z,94.74
2024-03-26T00:14:33.215Z,94.36
2024-03-26T00:17:02.858Z,94.01
2024-03-26T00:19:31.472Z,93.30
2024-03-26T00:21:59.924Z,92.95
2024-03-26T00:24:28.475Z,92.76
2024-03-26T00:26:56.940Z,92.85
2024-03-26T00:29:25.232Z,92.68
2024-03-26T00:31:53.712Z,92.62
2024-03-26T00:34:22.092Z,92.72
2024-03-26T00:36:50.368Z,92.76
2024-03-26T00:39:18.652Z,93.03
2024-03-26T00:41:48.355Z,92.95
2024-03-26T00:44:16.746Z,93.33
2024-03-26T00:46:45.302Z,94.08
2024-03-26T00:49:13.601Z,94.81
2024-03-26T00:51:45.584Z,94.34
2024-03-26T00:54:13.774Z,94.31
2024-03-26T00:56:43.271Z,96.47
2024-03-26T00:59:11.727Z,99.76
2024-03-26T01:01:40.340Z,97.45
2024-03-26T01:04:08.995Z,96.36
2024-03-26T01:06:37.438Z,96.28
2024-03-26T01:09:05.814Z,99.34
2024-03-26T01:11:34.318Z,100.00
2024-03-26T01:14:02.687Z,100.00
2024-03-26T01:16:31.416Z,100.00
2024-03-26T01:18:59.787Z,100.00
2024-03-26T01:21:28.587Z,100.00
2024-03-26T01:23:57.228Z,100.00
2024-03-26T01:26:25.745Z,100.00
2024-03-26T01:28:54.138Z,100.00
2024-03-26T01:31:22.915Z,100.00
2024-03-26T01:33:51.120Z,100.00
2024-03-26T01:36:19.784Z,100.00
2024-03-26T01:38:48.150Z,100.00
2024-03-26T01:41:16.538Z,100.00
2024-03-26T01:43:44.874Z,99.68
2024-03-26T01:46:13.383Z,99.36
2024-03-26T01:48:42.492Z,98.94
2024-03-26T01:51:11.732Z,98.70
2024-03-26T01:53:40.276Z,98.65
2024-03-26T01:56:09.570Z,98.38
2024-03-26T01:58:38.359Z,98.12
2024-03-26T02:01:08.222Z,98.17
2024-03-26T02:03:36.614Z,97.66
2024-03-26T02:06:05.325Z,97.65
2024-03-26T02:08:33.830Z,97.58
2024-03-26T02:11:02.457Z,97.90
2024-03-26T02:13:30.972Z,97.72
2024-03-26T02:15:59.575Z,97.55
2024-03-26T02:18:27.944Z,97.39
2024-03-26T02:20:56.192Z,97.80
2024-03-26T02:23:24.720Z,97.40
2024-03-26T02:25:53.404Z,97.31
2024-03-26T02:28:22.004Z,97.41
2024-03-26T02:30:50.778Z,97.28
2024-03-26T02:33:19.205Z,97.34
2024-03-26T02:35:47.623Z,97.35
2024-03-26T02:38:15.825Z,97.00
2024-03-26T02:40:44.293Z,96.99
2024-03-26T02:43:13.188Z,96.80
2024-03-26T02:45:41.670Z,96.63
2024-03-26T02:48:09.993Z,96.29
2024-03-26T02:50:38.545Z,96.27
2024-03-26T02:53:06.989Z,96.36
2024-03-26T02:55:35.594Z,98.20
2024-03-26T02:58:04.445Z,100.00
2024-03-26T03:00:33.187Z,100.00
2024-03-26T03:03:01.655Z,100.00
2024-03-26T03:05:30.134Z,100.00
2024-03-26T03:07:58.483Z,100.00
2024-03-26T03:10:27.497Z,100.00
2024-03-26T03:12:55.892Z,100.00
2024-03-26T03:15:24.474Z,100.00
2024-03-26T03:17:52.745Z,100.00
2024-03-26T03:20:21.336Z,100.00
2024-03-26T03:22:49.813Z,100.00
2024-03-26T03:25:18.282Z,100.00
2024-03-26T03:27:46.677Z,100.00
2024-03-26T03:30:14.990Z,100.00
2024-03-26T03:32:43.438Z,100.00
2024-03-26T03:35:12.271Z,100.00
2024-03-26T03:37:40.604Z,100.00
2024-03-26T03:40:09.701Z,100.00
2024-03-26T03:42:38.175Z,100.00
2024-03-26T03:45:07.387Z,100.00
2024-03-26T03:47:35.659Z,100.00
2024-03-26T03:50:04.657Z,100.00
2024-03-26T03:52:32.927Z,100.00
2024-03-26T03:55:01.645Z,100.00
2024-03-26T03:57:30.056Z,100.00
2024-03-26T03:59:58.373Z,100.00
2024-03-26T04:02:26.786Z,100.00
2024-03-26T04:04:55.029Z,100.00
2024-03-26T04:07:23.388Z,100.00
2024-03-26T04:09:55.110Z,100.00
2024-03-26T04:12:23.652Z,100.00
2024-03-26T04:14:52.103Z,100.00
2024-03-26T04:17:20.884Z,100.00
2024-03-26T04:19:49.053Z,100.00
2024-03-26T04:22:17.578Z,100.00
2024-03-26T04:24:46.258Z,100.00
2024-03-26T04:27:14.631Z,100.00
2024-03-26T04:29:43.021Z,100.00
2024-03-26T04:32:11.605Z,100.00
2024-03-26T04:34:40.388Z,100.00
2024-03-26T04:37:09.090Z,100.00
2024-03-26T04:39:37.435Z,100.00
2024-03-26T04:42:06.219Z,100.00
2024-03-26T04:44:34.526Z,100.00
2024-03-26T04:47:04.132Z,100.00
2024-03-26T04:49:32.409Z,100.00
2024-03-26T04:52:00.995Z,100.00
2024-03-26T04:54:30.158Z,100.00
2024-03-26T04:56:59.111Z,100.00
2024-03-26T04:59:27.670Z,100.00
2024-03-26T05:01:56.122Z,100.00
2024-03-26T05:04:24.806Z,100.00
2024-03-26T05:06:53.335Z,100.00
2024-03-26T05:09:21.714Z,100.00
2024-03-26T05:11:50.423Z,100.00
2024-03-26T05:14:18.960Z,100.00
2024-03-26T05:16:47.462Z,100.00
2024-03-26T05:19:15.803Z,100.00
2024-03-26T05:21:44.107Z,100.00
2024-03-26T05:24:12.591Z,100.00
2024-03-26T05:26:41.473Z,100.00
2024-03-26T05:29:09.951Z,100.00
2024-03-26T05:31:38.651Z,100.00
2024-03-26T05:34:07.196Z,100.00
2024-03-26T05:36:35.566Z,100.00
2024-03-26T05:39:05.215Z,100.00
2024-03-26T05:41:33.805Z,100.00
2024-03-26T05:44:02.297Z,100.00
2024-03-26T05:46:33.305Z,100.00
2024-03-26T05:49:02.334Z,100.00
2024-03-26T05:51:30.908Z,100.00
2024-03-26T05:53:59.285Z,100.00
2024-03-26T05:56:27.767Z,100.00
2024-03-26T05:58:56.268Z,100.00
2024-03-26T06:01:24.734Z,100.00
2024-03-26T06:03:53.284Z,100.00
2024-03-26T06:06:21.699Z,100.00
2024-03-26T06:08:50.296Z,100.00
2024-03-26T06:11:18.637Z,100.00
2024-03-26T06:13:47.042Z,100.00
2024-03-26T06:16:15.842Z,100.00
2024-03-26T06:18:44.472Z,100.00
2024-03-26T06:21:12.862Z,100.00
2024-03-26T06:23:42.315Z,99.64
2024-03-26T06:26:10.740Z,99.81
2024-03-26T06:28:39.579Z,99.72
2024-03-26T06:31:07.939Z,99.58
2024-03-26T06:33:36.189Z,98.03
2024-03-26T06:36:04.996Z,99.25
2024-03-26T06:38:33.507Z,99.11
2024-03-26T06:41:02.395Z,99.32
2024-03-26T06:43:30.675Z,98.44
2024-03-26T06:45:59.061Z,96.19
2024-03-26T06:48:27.735Z,94.18
2024-03-26T06:50:56.249Z,96.47
2024-03-26T06:53:25.115Z,92.88
2024-03-26T06:55:53.496Z,91.65
2024-03-26T06:58:22.198Z,90.96
2024-03-26T07:00:51.585Z,86.90
2024-03-26T07:03:19.793Z,87.38
2024-03-26T07:05:48.244Z,90.08
2024-03-26T07:08:16.772Z,90.06
2024-03-26T07:10:45.134Z,89.85
2024-03-26T07:13:13.650Z,89.25
2024-03-26T07:15:41.972Z,89.20
2024-03-26T07:18:11.534Z,87.29
2024-03-26T07:20:40.024Z,87.59
2024-03-26T07:23:08.580Z,88.50
2024-03-26T07:25:38.044Z,88.90
2024-03-26T07:28:06.946Z,83.90
2024-03-26T07:30:35.427Z,85.35
2024-03-26T07:33:04.062Z,85.82
2024-03-26T07:35:32.282Z,87.00
2024-03-26T07:38:00.980Z,88.94
2024-03-26T07:40:29.861Z,86.01
2024-03-26T07:42:59.823Z,88.90
2024-03-26T07:45:32.095Z,83.96
2024-03-26T07:48:00.868Z,83.77
2024-03-26T07:50:29.226Z,85.89
2024-03-26T07:52:57.820Z,86.79
2024-03-26T07:55:26.444Z,83.83
2024-03-26T07:57:55.078Z,84.06
2024-03-26T08:00:23.970Z,86.08
2024-03-26T08:02:52.159Z,83.98
2024-03-26T08:05:20.729Z,83.25
2024-03-26T08:07:49.315Z,83.65
2024-03-26T08:10:18.729Z,78.35
2024-03-26T08:12:47.199Z,78.25
2024-03-26T08:15:15.846Z,82.63
2024-03-26T08:17:44.271Z,81.02
2024-03-26T08:20:13.436Z,71.28
2024-03-26T08:22:41.713Z,76.53
2024-03-26T08:25:11.227Z,76.45
2024-03-26T08:27:40.853Z,72.73
2024-03-26T08:30:11.837Z,77.71
2024-03-26T08:32:40.379Z,78.26
2024-03-26T08:35:12.064Z,76.30
2024-03-26T08:37:40.735Z,78.52
2024-03-26T08:40:10.094Z,78.75
2024-03-26T08:42:39.307Z,78.99
2024-03-26T08:45:11.910Z,77.94
2024-03-26T08:47:40.825Z,76.29
2024-03-26T08:50:09.767Z,71.41
2024-03-26T08:52:38.112Z,72.51
2024-03-26T08:55:06.494Z,76.55
2024-03-26T08:57:34.788Z,76.22
2024-03-26T09:00:10.588Z,76.21
2024-03-26T09:02:39.276Z,71.84
2024-03-26T09:05:08.177Z,71.84
2024-03-26T09:07:37.539Z,58.84
2024-03-26T09:10:07.473Z,60.62
2024-03-26T09:12:36.707Z,62.82
2024-03-26T09:15:06.248Z,54.75
2024-03-26T09:17:34.983Z,52.34
2024-03-26T09:20:05.548Z,52.81
2024-03-26T09:22:34.161Z,55.68
2024-03-26T09:25:03.796Z,56.68
2024-03-26T09:27:32.296Z,56.07
2024-03-26T09:30:00.960Z,56.56
2024-03-26T09:32:29.898Z,49.04
2024-03-26T09:34:58.475Z,47.80
2024-03-26T09:37:27.565Z,48.39
2024-03-26T09:39:56.660Z,49.97
2024-03-26T09:42:27.030Z,47.95
2024-03-26T09:45:05.248Z,47.76
2024-03-26T09:47:35.929Z,48.28
2024-03-26T09:50:05.506Z,47.76
2024-03-26T09:52:39.449Z,45.74
2024-03-26T09:55:10.967Z,39.76
2024-03-26T09:57:39.352Z,37.44
2024-03-26T10:00:08.575Z,40.56
2024-03-26T10:02:37.021Z,42.12
2024-03-26T10:05:08.383Z,40.74
2024-03-26T10:07:37.217Z,41.46
2024-03-26T10:10:06.351Z,43.30
2024-03-26T10:12:34.798Z,42.07
2024-03-26T10:15:04.923Z,41.93
2024-03-26T10:17:37.915Z,45.02
2024-03-26T10:20:07.172Z,40.23
2024-03-26T10:22:35.930Z,41.42
2024-03-26T10:25:05.908Z,40.10
2024-03-26T10:27:34.542Z,37.10
2024-03-26T10:30:09.304Z,38.43
2024-03-26T10:32:38.313Z,40.70
2024-03-26T10:35:09.776Z,37.69
2024-03-26T10:37:39.067Z,38.69
2024-03-26T10:40:18.371Z,37.13
2024-03-26T10:42:53.840Z,38.60
2024-03-26T10:45:37.620Z,40.58
2024-03-26T10:48:14.191Z,40.77
2024-03-26T10:50:43.361Z,40.19
2024-03-26T10:53:13.746Z,39.20
2024-03-26T10:55:44.580Z,42.19
2024-03-26T10:58:12.969Z,41.03
2024-03-26T11:00:44.030Z,39.77
2024-03-26T11:03:14.535Z,41.17
2024-03-26T11:05:44.293Z,41.41
2024-03-26T11:08:19.803Z,42.24
2024-03-26T11:11:19.686Z,40.92
2024-03-26T11:13:48.244Z,40.66
2024-03-26T11:16:43.243Z,41.09
2024-03-26T11:19:26.175Z,42.23
2024-03-26T11:21:55.124Z,42.82
2024-03-26T11:24:37.346Z,42.27
2024-03-26T11:27:09.308Z,42.71
2024-03-26T11:29:41.775Z,42.84
2024-03-26T11:32:10.296Z,41.97
2024-03-26T11:34:38.714Z,42.15
2024-03-26T11:37:07.157Z,44.61
2024-03-26T11:39:37.192Z,40.37
2024-03-26T11:42:06.559Z,42.72
2024-03-26T11:44:35.266Z,41.74
2024-03-26T11:47:04.134Z,41.12
2024-03-26T11:49:37.247Z,41.81
2024-03-26T11:52:06.421Z,40.05
2024-03-26T11:54:35.660Z,38.69
2024-03-26T11:57:04.537Z,39.41
2024-03-26T11:59:32.912Z,38.27
2024-03-26T12:02:01.260Z,38.78
2024-03-26T12:04:29.676Z,38.15
2024-03-26T12:06:58.364Z,36.66
2024-03-26T12:09:26.810Z,37.34
2024-03-26T12:11:55.435Z,37.32
2024-03-26T12:14:24.290Z,36.91
2024-03-26T12:16:53.133Z,38.95
2024-03-26T12:19:22.242Z,39.20
2024-03-26T12:21:50.693Z,36.97
2024-03-26T12:24:19.282Z,34.88
2024-03-26T12:26:47.597Z,35.91
2024-03-26T12:29:15.994Z,37.98
2024-03-26T12:31:45.307Z,38.28
2024-03-26T12:34:15.056Z,36.54
2024-03-26T12:36:46.216Z,37.41
2024-03-26T12:39:14.478Z,37.04
2024-03-26T12:41:43.068Z,37.49
2024-03-26T12:44:14.016Z,36.94
2024-03-26T12:46:43.105Z,31.90
2024-03-26T12:49:11.487Z,31.89
2024-03-26T12:51:39.681Z,32.00
2024-03-26T12:54:09.954Z,31.65
2024-03-26T12:56:39.323Z,34.19
2024-03-26T12:59:08.387Z,32.33
2024-03-26T13:01:36.736Z,32.77
2024-03-26T13:04:05.137Z,30.97
2024-03-26T13:06:33.727Z,28.60
2024-03-26T13:09:02.380Z,30.95
2024-03-26T13:11:31.377Z,29.52
2024-03-26T13:14:00.683Z,29.10
2024-03-26T13:16:30.599Z,30.25
2024-03-26T13:18:59.212Z,30.26
2024-03-26T13:21:28.019Z,28.98
2024-03-26T13:23:56.388Z,28.96
2024-03-26T13:26:24.974Z,27.81
2024-03-26T13:28:53.665Z,25.68
2024-03-26T13:31:22.102Z,26.70
2024-03-26T13:33:51.550Z,25.09
2024-03-26T13:36:22.331Z,25.11
2024-03-26T13:38:50.717Z,23.84
2024-03-26T13:41:19.136Z,23.70
2024-03-26T13:43:47.625Z,24.71
2024-03-26T13:46:16.615Z,25.11
2024-03-26T13:48:45.166Z,24.48
2024-03-26T13:51:13.469Z,24.81
2024-03-26T13:53:41.857Z,22.25
2024-03-26T13:56:10.652Z,22.91
2024-03-26T13:58:40.120Z,24.31
2024-03-26T14:01:08.695Z,24.30
2024-03-26T14:03:36.900Z,24.58
2024-03-26T14:06:05.482Z,24.87
2024-03-26T14:08:34.009Z,24.85
2024-03-26T14:11:02.264Z,24.21
2024-03-26T14:13:30.631Z,25.45
2024-03-26T14:15:58.968Z,24.71
2024-03-26T14:18:27.226Z,25.30
2024-03-26T14:21:04.429Z,25.63
2024-03-26T14:23:32.789Z,23.77
2024-03-26T14:26:02.141Z,24.75
2024-03-26T14:28:30.555Z,24.99
2024-03-26T14:30:59.345Z,25.79
2024-03-26T14:33:27.679Z,25.49
2024-03-26T14:35:56.267Z,25.04
2024-03-26T14:38:24.795Z,23.84
2024-03-26T14:40:53.186Z,24.34
2024-03-26T14:43:21.863Z,26.17
2024-03-26T14:45:50.389Z,25.76
2024-03-26T14:48:18.930Z,25.65
2024-03-26T14:50:53.252Z,25.59
2024-03-26T14:53:24.400Z,26.79
2024-03-26T14:55:53.082Z,24.07
2024-03-26T14:58:21.484Z,24.56
2024-03-26T15:00:50.765Z,25.61
2024-03-26T15:03:19.756Z,24.79
2024-03-26T15:05:50.467Z,25.78
2024-03-26T15:08:19.179Z,25.75
2024-03-26T15:10:47.663Z,25.59
2024-03-26T15:13:16.311Z,26.01
2024-03-26T15:15:44.524Z,26.90
2024-03-26T15:18:12.825Z,26.33
2024-03-26T15:20:41.758Z,26.51
2024-03-26T15:23:10.174Z,27.28
2024-03-26T15:25:38.561Z,27.86
2024-03-26T15:28:25.405Z,28.47
2024-03-26T15:31:25.968Z,29.78
2024-03-26T15:33:54.548Z,30.98
2024-03-26T15:36:22.931Z,31.18
2024-03-26T15:38:51.420Z,32.70
2024-03-26T15:41:20.041Z,32.93
2024-03-26T15:43:48.725Z,35.03
2024-03-26T15:46:18.956Z,35.54
2024-03-26T15:48:47.434Z,34.99
2024-03-26T15:51:15.737Z,36.35
2024-03-26T15:53:44.312Z,37.69
2024-03-26T15:56:12.878Z,37.67
2024-03-26T15:58:41.364Z,37.88
2024-03-26T16:01:09.712Z,39.62
2024-03-26T16:03:38.330Z,39.92
2024-03-26T16:06:07.769Z,41.13
2024-03-26T16:08:36.530Z,40.42
2024-03-26T16:11:13.121Z,41.03
2024-03-26T16:13:42.499Z,41.79
2024-03-26T16:16:11.308Z,40.80
2024-03-26T16:18:39.841Z,41.54
2024-03-26T16:21:08.274Z,42.75
2024-03-26T16:23:36.655Z,44.32
2024-03-26T16:26:05.231Z,43.78
2024-03-26T16:28:33.912Z,44.95
2024-03-26T16:31:03.555Z,43.84
2024-03-26T16:33:32.206Z,43.61
2024-03-26T16:36:11.398Z,43.18
2024-03-26T16:38:41.504Z,43.50
2024-03-26T16:41:10.247Z,43.74
2024-03-26T16:43:46.359Z,44.60
2024-03-26T16:46:21.242Z,46.08
2024-03-26T16:48:49.830Z,46.44
2024-03-26T16:51:19.233Z,46.67
2024-03-26T16:53:47.504Z,47.46
2024-03-26T16:56:16.196Z,48.30
2024-03-26T16:58:44.882Z,48.11
2024-03-26T17:01:14.081Z,48.89
2024-03-26T17:03:42.369Z,49.21
2024-03-26T17:06:11.474Z,49.04
2024-03-26T17:08:40.642Z,50.43
2024-03-26T17:11:09.139Z,51.47
2024-03-26T17:13:37.821Z,51.66
2024-03-26T17:16:07.107Z,52.13
2024-03-26T17:18:36.150Z,52.52
2024-03-26T17:21:05.069Z,53.49
2024-03-26T17:23:33.391Z,54.01
2024-03-26T17:26:01.982Z,54.25
2024-03-26T17:28:30.379Z,54.41
2024-03-26T17:30:58.945Z,54.67
2024-03-26T17:33:27.435Z,54.58
2024-03-26T17:35:55.898Z,54.78
2024-03-26T17:38:24.459Z,54.69
2024-03-26T17:40:53.896Z,54.83
2024-03-26T17:43:22.836Z,55.26
2024-03-26T17:45:52.004Z,55.72
2024-03-26T17:48:20.476Z,56.33
2024-03-26T17:50:55.904Z,57.30
2024-03-26T17:53:29.192Z,57.47
2024-03-26T17:55:57.603Z,57.33
2024-03-26T17:58:26.827Z,58.09
2024-03-26T18:01:05.409Z,58.54
2024-03-26T18:03:33.638Z,58.94
2024-03-26T18:06:04.509Z,59.37
2024-03-26T18:08:33.116Z,58.73
2024-03-26T18:11:01.904Z,59.46
2024-03-26T18:13:30.462Z,60.02
2024-03-26T18:16:03.031Z,59.98
2024-03-26T18:18:31.319Z,59.84
2024-03-26T18:21:01.113Z,60.84
2024-03-26T18:23:29.598Z,61.12
2024-03-26T18:26:05.188Z,61.11
2024-03-26T18:28:34.881Z,60.85
2024-03-26T18:31:06.904Z,61.33
2024-03-26T18:33:35.412Z,61.46
2024-03-26T18:36:05.786Z,62.66
2024-03-26T18:38:36.079Z,62.63
2024-03-26T18:41:07.140Z,62.15
2024-03-26T18:43:40.789Z,62.40
2024-03-26T18:46:14.500Z,61.79
2024-03-26T18:48:44.242Z,62.41
2024-03-26T18:51:14.285Z,61.89
2024-03-26T18:53:43.268Z,62.39
2024-03-26T18:56:12.881Z,63.07
2024-03-26T18:58:42.353Z,63.34
2024-03-26T19:01:18.952Z,63.06
2024-03-26T19:03:49.285Z,62.73
2024-03-26T19:06:18.942Z,62.49
2024-03-26T19:08:47.796Z,62.21
2024-03-26T19:11:17.085Z,62.56
2024-03-26T19:13:45.356Z,63.50
2024-03-26T19:16:14.153Z,63.14
2024-03-26T19:18:42.633Z,63.13
2024-03-26T19:21:10.976Z,63.15
2024-03-26T19:23:39.369Z,63.46
2024-03-26T19:26:09.413Z,64.24
2024-03-26T19:28:38.718Z,64.86
2024-03-26T19:31:10.781Z,64.91
2024-03-26T19:33:39.366Z,65.33
2024-03-26T19:36:10.657Z,64.46
2024-03-26T19:38:39.568Z,64.27
2024-03-26T19:41:09.355Z,65.15
2024-03-26T19:43:38.308Z,66.36
2024-03-26T19:46:08.432Z,66.68
2024-03-26T19:48:38.356Z,67.50
2024-03-26T19:51:10.424Z,66.97
2024-03-26T19:53:39.628Z,66.61
2024-03-26T19:56:09.013Z,66.89
2024-03-26T19:58:37.496Z,66.76
2024-03-26T20:01:08.233Z,66.92
2024-03-26T20:03:37.704Z,67.13
2024-03-26T20:06:11.345Z,67.77
2024-03-26T20:08:44.235Z,67.82
2024-03-26T20:11:18.830Z,67.97
2024-03-26T20:13:47.437Z,69.21
2024-03-26T20:16:22.781Z,70.39
2024-03-26T20:18:51.154Z,70.78
2024-03-26T20:21:19.535Z,69.93
2024-03-26T20:23:48.040Z,71.33
2024-03-26T20:26:16.712Z,72.31
2024-03-26T20:28:45.193Z,72.08
2024-03-26T20:31:14.613Z,73.82
2024-03-26T20:33:44.420Z,73.15
2024-03-26T20:36:19.051Z,73.83
2024-03-26T20:38:48.931Z,73.17
2024-03-26T20:41:17.093Z,73.75
2024-03-26T20:43:46.487Z,73.21
2024-03-26T20:46:15.118Z,72.18
2024-03-26T20:48:43.699Z,73.30
2024-03-26T20:51:13.098Z,74.32
2024-03-26T20:53:41.887Z,74.23
2024-03-26T20:56:10.142Z,74.05
2024-03-26T20:58:38.695Z,74.65
2024-03-26T21:01:14.570Z,75.53
2024-03-26T21:03:43.168Z,76.18
2024-03-26T21:06:11.576Z,77.70
2024-03-26T21:08:40.287Z,76.81
2024-03-26T21:11:13.422Z,76.88
2024-03-26T21:13:42.142Z,77.30
2024-03-26T21:16:12.345Z,77.74
2024-03-26T21:18:48.990Z,77.46
2024-03-26T21:21:23.047Z,76.40
2024-03-26T21:23:51.742Z,77.12
2024-03-26T21:26:20.118Z,77.78
2024-03-26T21:28:48.655Z,76.47
2024-03-26T21:31:18.048Z,77.13
2024-03-26T21:33:46.377Z,77.12
2024-03-26T21:36:15.053Z,78.92
2024-03-26T21:38:43.446Z,78.17
2024-03-26T21:41:12.127Z,78.64
2024-03-26T21:43:40.739Z,78.82
2024-03-26T21:46:09.305Z,79.75
2024-03-26T21:48:37.790Z,79.99
2024-03-26T21:51:06.217Z,80.80
2024-03-26T21:53:34.547Z,80.33
2024-03-26T21:56:07.879Z,80.91
2024-03-26T21:58:36.622Z,80.80
2024-03-26T22:01:07.049Z,80.71
2024-03-26T22:03:35.347Z,80.80
2024-03-26T22:06:14.167Z,80.66
2024-03-26T22:08:43.256Z,80.78
2024-03-26T22:11:14.482Z,79.85
2024-03-26T22:13:42.745Z,80.09
2024-03-26T22:16:11.265Z,80.57
2024-03-26T22:18:39.599Z,80.08
2024-03-26T22:21:07.989Z,80.11
2024-03-26T22:23:36.255Z,79.91
2024-03-26T22:26:08.172Z,79.92
2024-03-26T22:28:37.062Z,79.88
2024-03-26T22:31:06.567Z,80.81
2024-03-26T22:33:38.165Z,81.41
2024-03-26T22:36:10.560Z,80.69
2024-03-26T22:38:38.846Z,80.52
2024-03-26T22:41:07.310Z,79.84
2024-03-26T22:43:38.829Z,79.83
2024-03-26T22:46:07.755Z,79.63
2024-03-26T22:48:39.753Z,80.41
2024-03-26T22:51:08.194Z,81.86
2024-03-26T22:53:36.719Z,81.76
2024-03-26T22:56:06.914Z,82.65
2024-03-26T22:58:35.164Z,82.25
2024-03-26T23:01:05.573Z,81.91
2024-03-26T23:03:33.993Z,82.38
2024-03-26T23:06:04.739Z,82.74
2024-03-26T23:08:33.243Z,83.77
2024-03-26T23:11:01.723Z,84.46
2024-03-26T23:13:31.032Z,84.59
2024-03-26T23:16:06.569Z,84.59
2024-03-26T23:18:34.968Z,84.63
2024-03-26T23:21:04.062Z,84.81
2024-03-26T23:23:32.740Z,84.35
2024-03-26T23:26:01.328Z,84.58
2024-03-26T23:28:29.947Z,85.16
2024-03-26T23:30:58.387Z,84.71
2024-03-26T23:33:26.637Z,85.68
2024-03-26T23:35:54.820Z,85.56
2024-03-26T23:38:23.326Z,86.22
2024-03-26T23:40:52.730Z,86.23
2024-03-26T23:43:22.441Z,86.27
2024-03-26T23:45:51.029Z,86.15
2024-03-26T23:48:19.303Z,85.97
2024-03-26T23:50:47.781Z,86.00
2024-03-26T23:53:16.335Z,85.64
2024-03-26T23:55:45.469Z,86.03
2024-03-26T23:58:13.943Z,85.86
